createdAt,value
2022-09-12T00:01:17.080Z,98139.84
2022-09-12T00:03:45.673Z,98146.88
2022-09-12T00:06:21.972Z,98144.41
2022-09-12T00:08:51.571Z,98145.22
2022-09-12T00:11:21.327Z,98149.78
2022-09-12T00:13:51.065Z,98147.25
2022-09-12T00:16:21.782Z,98147.25
2022-09-12T00:18:50.361Z,98148.09
2022-09-12T00:21:19.420Z,98150.97
2022-09-12T00:23:47.914Z,98141.03
2022-09-12T00:26:17.257Z,98138.53
2022-09-12T00:28:47.398Z,98139.38
2022-09-12T00:31:17.202Z,98155.53
2022-09-12T00:33:46.142Z,98152.84
2022-09-12T00:36:16.064Z,98150.16
2022-09-12T00:38:44.774Z,98147.63
2022-09-12T00:41:17.633Z,98151.16
2022-09-12T00:43:48.437Z,98143.91
2022-09-12T00:46:27.955Z,98142.25
2022-09-12T00:48:59.527Z,98138.72
2022-09-12T00:51:28.570Z,98146.81
2022-09-12T00:53:59.697Z,98147.63
2022-09-12T00:56:28.116Z,98141.41
2022-09-12T00:59:06.848Z,98148.66
2022-09-12T01:01:35.514Z,98150.53
2022-09-12T01:04:04.620Z,98142.44
2022-09-12T01:06:36.769Z,98144.28
2022-09-12T01:09:05.691Z,98149.66
2022-09-12T01:11:35.578Z,98146.97
2022-09-12T01:14:05.390Z,98155.25
2022-09-12T01:16:35.661Z,98153.38
2022-09-12T01:19:15.594Z,98148.00
2022-09-12T01:21:48.879Z,98149.03
2022-09-12T01:24:44.168Z,98153.56
2022-09-12T01:27:45.627Z,98150.88
2022-09-12T01:30:26.807Z,98149.03
2022-09-12T01:33:37.396Z,98136.59
2022-09-12T01:36:25.909Z,98145.50
2022-09-12T01:38:59.392Z,98140.09
2022-09-12T01:41:30.363Z,98146.34
2022-09-12T01:44:03.744Z,98144.66
2022-09-12T01:46:37.008Z,98136.59
2022-09-12T01:49:09.260Z,98143.81
2022-09-12T01:51:42.414Z,98143.00
2022-09-12T01:54:13.067Z,98151.06
2022-09-12T01:56:42.226Z,98147.56
2022-09-12T01:59:12.364Z,98153.75
2022-09-12T02:01:44.607Z,98145.03
2022-09-12T02:04:15.277Z,98151.25
2022-09-12T02:06:47.458Z,98152.06
2022-09-12T02:09:19.670Z,98151.25
2022-09-12T02:11:48.266Z,98147.72
2022-09-12T02:14:19.969Z,98163.84
2022-09-12T02:16:52.250Z,98157.81
2022-09-12T02:19:22.426Z,98160.34
2022-09-12T02:21:53.661Z,98156.81
2022-09-12T02:24:22.646Z,98159.50
2022-09-12T02:26:54.030Z,98155.13
2022-09-12T02:29:22.421Z,98159.50
2022-09-12T02:31:55.519Z,98158.66
2022-09-12T02:34:34.235Z,98161.34
2022-09-12T02:37:08.118Z,98155.13
2022-09-12T02:39:36.831Z,98148.75
2022-09-12T02:42:05.810Z,98154.31
2022-09-12T02:44:34.364Z,98153.28
2022-09-12T02:47:07.278Z,98155.13
2022-09-12T02:49:35.772Z,98164.03
2022-09-12T02:52:04.643Z,98157.00
2022-09-12T02:54:33.118Z,98155.34
2022-09-12T02:57:01.533Z,98160.72
2022-09-12T02:59:30.183Z,98160.72
2022-09-12T03:02:11.993Z,98159.03
2022-09-12T03:05:04.056Z,98166.91
2022-09-12T03:07:47.550Z,98166.09
2022-09-12T03:10:19.834Z,98173.34
2022-09-12T03:12:54.036Z,98172.47
2022-09-12T03:15:34.092Z,98170.81
2022-09-12T03:18:21.242Z,98178.03
2022-09-12T03:20:57.076Z,98175.34
2022-09-12T03:23:30.160Z,98162.91
2022-09-12T03:26:01.108Z,98167.47
2022-09-12T03:28:29.673Z,98160.22
2022-09-12T03:30:59.627Z,98170.16
2022-09-12T03:33:29.834Z,98168.28
2022-09-12T03:35:58.851Z,98168.50
2022-09-12T03:38:27.521Z,98175.53
2022-09-12T03:40:55.983Z,98172.00
2022-09-12T03:43:24.666Z,98181.94
2022-09-12T03:45:53.571Z,98185.47
2022-09-12T03:48:22.177Z,98181.13
2022-09-12T03:50:52.057Z,98179.41
2022-09-12T03:53:20.532Z,98185.63
2022-09-12T03:55:49.043Z,98186.50
2022-09-12T03:58:17.821Z,98196.38
2022-09-12T04:00:46.330Z,98188.31
2022-09-12T04:03:14.763Z,98191.22
2022-09-12T04:05:43.349Z,98197.41
2022-09-12T04:08:13.491Z,98189.50
2022-09-12T04:10:42.132Z,98185.81
2022-09-12T04:13:10.696Z,98194.88
2022-09-12T04:15:39.204Z,98189.50
2022-09-12T04:18:07.720Z,98188.69
2022-09-12T04:20:37.642Z,98189.50
2022-09-12T04:23:06.118Z,98198.44
2022-09-12T04:25:36.030Z,98192.41
2022-09-12T04:28:04.480Z,98199.44
2022-09-12T04:30:34.592Z,98195.94
2022-09-12T04:33:07.909Z,98199.44
2022-09-12T04:35:37.318Z,98202.97
2022-09-12T04:38:05.784Z,98202.31
2022-09-12T04:40:35.702Z,98212.06
2022-09-12T04:43:04.178Z,98199.63
2022-09-12T04:45:32.741Z,98202.31
2022-09-12T04:48:02.477Z,98212.25
2022-09-12T04:50:31.031Z,98207.72
2022-09-12T04:52:59.578Z,98206.88
2022-09-12T04:55:28.064Z,98205.19
2022-09-12T04:57:57.928Z,98205.19
2022-09-12T05:00:26.403Z,98218.63
2022-09-12T05:02:54.778Z,98208.91
2022-09-12T05:05:23.287Z,98219.84
2022-09-12T05:07:51.668Z,98222.34
2022-09-12T05:10:20.234Z,98224.22
2022-09-12T05:12:48.677Z,98224.00
2022-09-12T05:15:18.636Z,98226.16
2022-09-12T05:17:47.130Z,98233.03
2022-09-12T05:20:16.568Z,98238.56
2022-09-12T05:22:45.018Z,98237.38
2022-09-12T05:25:13.423Z,98247.97
2022-09-12T05:27:41.882Z,98240.91
2022-09-12T05:30:12.702Z,98240.91
2022-09-12T05:32:42.428Z,98250.00
2022-09-12T05:35:12.324Z,98249.81
2022-09-12T05:37:40.826Z,98248.78
2022-09-12T05:40:10.774Z,98257.69
2022-09-12T05:42:39.369Z,98255.47
2022-09-12T05:45:08.922Z,98252.97
2022-09-12T05:47:37.540Z,98256.69
2022-09-12T05:50:11.026Z,98253.72
2022-09-12T05:52:39.483Z,98251.03
2022-09-12T05:55:08.989Z,98252.69
2022-09-12T05:57:37.499Z,98253.34
2022-09-12T06:00:09.667Z,98247.97
2022-09-12T06:02:38.176Z,98255.84
2022-09-12T06:05:09.057Z,98258.88
2022-09-12T06:07:37.724Z,98253.34
2022-09-12T06:10:07.240Z,98259.91
2022-09-12T06:12:36.004Z,98251.19
2022-09-12T06:15:05.031Z,98260.28
2022-09-12T06:17:33.520Z,98257.59
2022-09-12T06:20:02.202Z,98258.22
2022-09-12T06:22:32.371Z,98256.19
2022-09-12T06:25:00.800Z,98257.03
2022-09-12T06:27:29.275Z,98257.75
2022-09-12T06:29:57.870Z,98261.78
2022-09-12T06:32:26.330Z,98263.59
2022-09-12T06:34:54.876Z,98262.47
2022-09-12T06:37:23.551Z,98265.28
2022-09-12T06:39:53.622Z,98263.44
2022-09-12T06:42:22.472Z,98270.19
2022-09-12T06:44:52.254Z,98272.03
2022-09-12T06:47:21.224Z,98271.22
2022-09-12T06:49:50.987Z,98269.56
2022-09-12T06:52:19.471Z,98270.19
2022-09-12T06:54:47.930Z,98271.03
2022-09-12T06:57:18.011Z,98271.03
2022-09-12T06:59:46.590Z,98268.16
2022-09-12T07:02:15.311Z,98272.69
2022-09-12T07:04:43.852Z,98270.69
2022-09-12T07:07:12.372Z,98273.38
2022-09-12T07:09:40.966Z,98269.66
2022-09-12T07:12:09.755Z,98276.53
2022-09-12T07:14:39.641Z,98266.78
2022-09-12T07:17:08.797Z,98265.47
2022-09-12T07:19:37.514Z,98274.56
2022-09-12T07:22:06.048Z,98280.78
2022-09-12T07:24:34.559Z,98280.94
2022-09-12T07:27:03.271Z,98275.56
2022-09-12T07:29:36.857Z,98279.28
2022-09-12T07:32:07.810Z,98288.19
2022-09-12T07:34:36.597Z,98289.22
2022-09-12T07:37:06.005Z,98283.63
2022-09-12T07:39:34.482Z,98297.06
2022-09-12T07:42:03.031Z,98280.31
2022-09-12T07:44:32.660Z,98286.31
2022-09-12T07:47:02.006Z,98288.00
2022-09-12T07:49:31.993Z,98291.69
2022-09-12T07:52:00.468Z,98286.31
2022-09-12T07:54:28.992Z,98293.75
2022-09-12T07:57:00.330Z,98293.56
2022-09-12T07:59:50.957Z,98289.88
2022-09-12T08:02:17.931Z,98287.34
2022-09-12T08:04:48.809Z,98296.25
2022-09-12T08:07:18.471Z,98298.09
2022-09-12T08:09:47.705Z,98296.25
2022-09-12T08:12:17.002Z,98297.06
2022-09-12T08:14:45.488Z,98304.31
2022-09-12T08:17:14.483Z,98299.97
2022-09-12T08:19:43.729Z,98300.78
2022-09-12T08:22:13.714Z,98303.69
2022-09-12T08:24:42.176Z,98306.16
2022-09-12T08:27:10.854Z,98308.03
2022-09-12T08:29:39.327Z,98306.16
2022-09-12T08:32:08.218Z,98299.75
2022-09-12T08:34:37.334Z,98297.06
2022-09-12T08:37:05.879Z,98302.94
2022-09-12T08:39:35.721Z,98293.69
2022-09-12T08:42:05.695Z,98292.66
2022-09-12T08:45:06.570Z,98297.72
2022-09-12T08:47:36.829Z,98292.34
2022-09-12T08:50:11.819Z,98293.38
2022-09-12T08:52:44.256Z,98296.91
2022-09-12T08:55:35.633Z,98305.13
2022-09-12T08:58:12.213Z,98303.47
2022-09-12T09:00:49.454Z,98295.41
2022-09-12T09:03:54.524Z,98288.19
2022-09-12T09:06:49.866Z,98292.56
2022-09-12T09:09:20.934Z,98285.50
2022-09-12T09:12:01.003Z,98292.56
2022-09-12T09:15:02.023Z,98297.06
2022-09-12T09:17:34.232Z,98285.50
2022-09-12T09:20:07.000Z,98297.28
2022-09-12T09:22:43.285Z,98295.59
2022-09-12T09:25:22.087Z,98292.06
2022-09-12T09:27:58.473Z,98294.75
2022-09-12T09:30:26.901Z,98295.78
2022-09-12T09:32:57.428Z,98292.41
2022-09-12T09:35:36.477Z,98290.56
2022-09-12T09:38:16.156Z,98295.94
2022-09-12T09:40:49.256Z,98283.16
2022-09-12T09:43:22.974Z,98286.69
2022-09-12T09:45:51.949Z,98296.59
2022-09-12T09:48:22.183Z,98287.53
2022-09-12T09:50:50.844Z,98291.06
2022-09-12T09:53:33.473Z,98295.41
2022-09-12T09:56:03.723Z,98292.91
2022-09-12T09:58:35.293Z,98299.13
2022-09-12T10:01:04.313Z,98283.81
2022-09-12T10:03:35.864Z,98288.38
2022-09-12T10:06:08.570Z,98290.22
2022-09-12T10:08:38.521Z,98300.13
2022-09-12T10:11:08.922Z,98293.75
2022-09-12T10:13:41.994Z,98299.13
2022-09-12T10:16:20.753Z,98291.53
2022-09-12T10:18:51.095Z,98294.59
2022-09-12T10:21:23.742Z,98290.03
2022-09-12T10:24:00.103Z,98281.81
2022-09-12T10:26:28.893Z,98284.66
2022-09-12T10:28:58.743Z,98294.75
2022-09-12T10:31:30.046Z,98293.75
2022-09-12T10:34:00.108Z,98285.69
2022-09-12T10:36:37.031Z,98283.16
2022-09-12T10:39:05.599Z,98283.47
2022-09-12T10:41:37.674Z,98281.81
2022-09-12T10:44:16.971Z,98281.66
2022-09-12T10:46:45.390Z,98274.78
2022-09-12T10:49:28.365Z,98279.34
2022-09-12T10:51:59.594Z,98285.09
2022-09-12T10:54:29.557Z,98279.03
2022-09-12T10:57:47.663Z,98288.13
2022-09-12T11:00:20.206Z,98291.81
2022-09-12T11:03:00.620Z,98290.31
2022-09-12T11:05:43.816Z,98287.84
2022-09-12T11:08:21.994Z,98297.56
2022-09-12T11:10:54.604Z,98290.53
2022-09-12T11:13:45.208Z,98281.44
2022-09-12T11:16:23.096Z,98278.75
2022-09-12T11:19:04.037Z,98282.25
2022-09-12T11:21:45.868Z,98285.16
2022-09-12T11:24:36.159Z,98281.63
2022-09-12T11:27:29.821Z,98280.44
2022-09-12T11:30:00.364Z,98268.66
2022-09-12T11:33:22.408Z,98272.38
2022-09-12T11:35:55.307Z,98269.19
2022-09-12T11:38:43.451Z,98278.75
2022-09-12T11:41:16.934Z,98280.75
2022-09-12T11:43:48.205Z,98273.72
2022-09-12T11:46:22.289Z,98274.75
2022-09-12T11:48:56.641Z,98269.38
2022-09-12T11:51:27.941Z,98271.41
2022-09-12T11:54:14.813Z,98276.94
2022-09-12T11:56:46.876Z,98279.47
2022-09-12T11:59:24.805Z,98278.81
2022-09-12T12:01:53.714Z,98282.31
2022-09-12T12:04:27.838Z,98282.31
2022-09-12T12:07:02.461Z,98285.88
2022-09-12T12:09:31.917Z,98278.81
2022-09-12T12:12:01.732Z,98283.34
2022-09-12T12:14:34.477Z,98280.50
2022-09-12T12:17:02.843Z,98271.41
2022-09-12T12:19:37.802Z,98286.72
2022-09-12T12:22:17.109Z,98285.88
2022-09-12T12:25:29.615Z,98287.69
2022-09-12T12:28:01.783Z,98278.63
2022-09-12T12:31:04.016Z,98277.81
2022-09-12T12:34:21.494Z,98272.44
2022-09-12T12:36:51.345Z,98279.84
2022-09-12T12:40:01.327Z,98281.50
2022-09-12T12:43:07.663Z,98286.88
2022-09-12T12:46:08.422Z,98277.16
2022-09-12T12:48:54.042Z,98286.03
2022-09-12T12:52:01.279Z,98282.16
2022-09-12T12:54:52.471Z,98271.41
2022-09-12T12:57:39.455Z,98271.25
2022-09-12T13:00:25.475Z,98277.25
2022-09-12T13:02:57.403Z,98278.28
2022-09-12T13:05:27.078Z,98269.38
2022-09-12T13:07:59.389Z,98266.69
2022-09-12T13:10:29.665Z,98266.50
2022-09-12T13:12:59.797Z,98267.34
2022-09-12T13:15:52.043Z,98264.47
2022-09-12T13:18:27.952Z,98263.66
2022-09-12T13:21:02.371Z,98263.66
2022-09-12T13:23:33.564Z,98262.97
2022-09-12T13:26:03.545Z,98258.44
2022-09-12T13:28:32.327Z,98260.97
2022-09-12T13:31:03.427Z,98267.81
2022-09-12T13:33:37.072Z,98272.00
2022-09-12T13:36:33.696Z,98259.56
2022-09-12T13:39:22.547Z,98259.56
2022-09-12T13:42:20.364Z,98262.25
2022-09-12T13:44:51.260Z,98269.50
2022-09-12T13:47:24.400Z,98261.44
2022-09-12T13:49:52.978Z,98251.50
2022-09-12T13:52:23.401Z,98247.81
2022-09-12T13:54:55.328Z,98246.78
2022-09-12T13:57:31.536Z,98252.16
2022-09-12T14:00:01.528Z,98258.56
2022-09-12T14:02:31.485Z,98247.97
2022-09-12T14:05:12.687Z,98247.81
2022-09-12T14:07:56.398Z,98260.44
2022-09-12T14:10:32.003Z,98256.72
2022-09-12T14:13:00.878Z,98247.97
2022-09-12T14:15:31.134Z,98252.16
2022-09-12T14:18:01.718Z,98244.09
2022-09-12T14:20:32.763Z,98251.34
2022-09-12T14:23:02.990Z,98244.94
2022-09-12T14:25:37.593Z,98245.78
2022-09-12T14:28:06.221Z,98244.56
2022-09-12T14:30:36.332Z,98242.91
2022-09-12T14:33:19.905Z,98248.28
2022-09-12T14:35:50.693Z,98247.25
2022-09-12T14:38:26.421Z,98249.78
2022-09-12T14:41:01.500Z,98245.22
2022-09-12T14:43:31.867Z,98236.16
2022-09-12T14:46:01.847Z,98237.81
2022-09-12T14:48:31.961Z,98240.50
2022-09-12T14:51:01.433Z,98235.97
2022-09-12T14:53:34.904Z,98240.34
2022-09-12T14:56:13.090Z,98233.94
2022-09-12T14:58:41.855Z,98240.13
2022-09-12T15:01:37.574Z,98232.75
2022-09-12T15:04:06.388Z,98242.16
2022-09-12T15:06:37.993Z,98240.50
2022-09-12T15:09:09.514Z,98243.19
2022-09-12T15:11:39.507Z,98233.09
2022-09-12T15:14:08.532Z,98238.41
2022-09-12T15:16:36.945Z,98238.03
2022-09-12T15:19:05.832Z,98235.53
2022-09-12T15:21:34.257Z,98242.38
2022-09-12T15:24:02.854Z,98245.06
2022-09-12T15:26:31.798Z,98245.06
2022-09-12T15:29:01.618Z,98249.25
2022-09-12T15:31:31.176Z,98242.38
2022-09-12T15:34:01.067Z,98245.94
2022-09-12T15:36:30.161Z,98237.22
2022-09-12T15:38:58.828Z,98252.69
2022-09-12T15:41:31.144Z,98246.66
2022-09-12T15:44:01.366Z,98249.34
2022-09-12T15:46:29.796Z,98248.50
2022-09-12T15:48:58.394Z,98253.06
2022-09-12T15:51:26.849Z,98253.22
2022-09-12T15:53:55.346Z,98264.16
2022-09-12T15:56:23.931Z,98250.72
2022-09-12T15:58:59.343Z,98255.06
2022-09-12T16:01:29.954Z,98254.41
2022-09-12T16:03:58.501Z,98250.72
2022-09-12T16:06:27.987Z,98256.94
2022-09-12T16:08:56.367Z,98260.66
2022-09-12T16:11:26.479Z,98257.75
2022-09-12T16:13:55.351Z,98265.00
2022-09-12T16:16:24.102Z,98250.72
2022-09-12T16:18:53.973Z,98253.41
2022-09-12T16:21:22.467Z,98255.91
2022-09-12T16:23:51.189Z,98251.56
2022-09-12T16:26:20.443Z,98261.47
2022-09-12T16:28:49.108Z,98249.03
2022-09-12T16:31:17.749Z,98244.31
2022-09-12T16:33:46.477Z,98248.34
2022-09-12T16:36:17.701Z,98262.78
2022-09-12T16:38:47.138Z,98254.91
2022-09-12T16:41:16.886Z,98252.03
2022-09-12T16:43:45.600Z,98253.72
2022-09-12T16:46:16.056Z,98256.88
2022-09-12T16:48:50.933Z,98250.81
2022-09-12T16:51:23.782Z,98254.53
2022-09-12T16:53:52.200Z,98256.41
2022-09-12T16:56:21.523Z,98255.38
2022-09-12T16:58:50.299Z,98248.34
2022-09-12T17:01:20.756Z,98256.88
2022-09-12T17:03:49.283Z,98259.56
2022-09-12T17:06:19.370Z,98248.97
2022-09-12T17:08:50.372Z,98256.19
2022-09-12T17:11:20.106Z,98253.50
2022-09-12T17:14:05.915Z,98252.50
2022-09-12T17:16:36.121Z,98251.66
2022-09-12T17:19:04.686Z,98245.66
2022-09-12T17:21:33.137Z,98256.19
2022-09-12T17:24:03.883Z,98248.97
2022-09-12T17:26:32.776Z,98249.63
2022-09-12T17:29:01.900Z,98255.66
2022-09-12T17:31:30.938Z,98260.38
2022-09-12T17:34:02.503Z,98268.66
2022-09-12T17:36:32.224Z,98266.78
2022-09-12T17:39:02.297Z,98268.66
2022-09-12T17:41:31.938Z,98269.94
2022-09-12T17:44:03.378Z,98272.84
2022-09-12T17:46:35.402Z,98276.53
2022-09-12T17:49:05.667Z,98277.34
2022-09-12T17:51:34.181Z,98275.53
2022-09-12T17:54:05.587Z,98280.69
2022-09-12T17:56:34.725Z,98288.97
2022-09-12T17:59:03.485Z,98289.78
2022-09-12T18:01:51.041Z,98287.28
2022-09-12T18:04:20.330Z,98284.59
2022-09-12T18:06:49.678Z,98298.03
2022-09-12T18:09:20.997Z,98286.44
2022-09-12T18:11:50.190Z,98288.31
2022-09-12T18:14:18.834Z,98287.28
2022-09-12T18:16:47.795Z,98289.97
2022-09-12T18:19:16.710Z,98287.28
2022-09-12T18:21:45.959Z,98295.34
2022-09-12T18:24:14.508Z,98296.38
2022-09-12T18:26:44.983Z,98300.72
2022-09-12T18:29:16.836Z,98301.75
2022-09-12T18:31:47.060Z,98297.19
2022-09-12T18:34:16.000Z,98301.75
2022-09-12T18:36:45.603Z,98306.28
2022-09-12T18:39:14.277Z,98305.44
2022-09-12T18:41:44.272Z,98305.44
2022-09-12T18:44:13.205Z,98298.41
2022-09-12T18:46:41.732Z,98306.47
2022-09-12T18:49:10.725Z,98301.91
2022-09-12T18:51:42.076Z,98307.28
2022-09-12T18:54:13.781Z,98304.59
2022-09-12T18:56:46.192Z,98301.91
2022-09-12T18:59:15.265Z,98297.56
2022-09-12T19:01:44.170Z,98295.72
2022-09-12T19:04:14.067Z,98302.13
2022-09-12T19:06:43.756Z,98302.13
2022-09-12T19:09:13.552Z,98292.19
2022-09-12T19:11:50.044Z,98306.09
2022-09-12T19:14:20.023Z,98298.50
2022-09-12T19:16:48.544Z,98304.06
2022-09-12T19:19:17.298Z,98301.75
2022-09-12T19:21:45.873Z,98292.50
2022-09-12T19:24:15.097Z,98295.81
2022-09-12T19:26:44.945Z,98297.66
2022-09-12T19:29:14.662Z,98294.97
2022-09-12T19:31:43.527Z,98294.16
2022-09-12T19:34:13.242Z,98288.59
2022-09-12T19:36:46.730Z,98286.53
2022-09-12T19:39:16.228Z,98284.88
2022-09-12T19:41:46.328Z,98288.59
2022-09-12T19:44:14.996Z,98284.88
2022-09-12T19:46:43.632Z,98289.22
2022-09-12T19:49:13.146Z,98290.44
2022-09-12T19:51:41.984Z,98291.28
2022-09-12T19:54:10.744Z,98294.16
2022-09-12T19:56:39.459Z,98287.94
2022-09-12T19:59:09.987Z,98284.41
2022-09-12T20:01:38.677Z,98282.72
2022-09-12T20:04:07.727Z,98282.72
2022-09-12T20:06:36.842Z,98273.66
2022-09-12T20:09:05.612Z,98260.38
2022-09-12T20:11:34.343Z,98263.91
2022-09-12T20:14:05.502Z,98260.38
2022-09-12T20:16:35.533Z,98263.06
2022-09-12T20:19:07.034Z,98265.75
2022-09-12T20:21:36.183Z,98271.13
2022-09-12T20:24:06.067Z,98261.41
2022-09-12T20:26:34.658Z,98262.25
2022-09-12T20:29:03.375Z,98262.41
2022-09-12T20:31:32.102Z,98262.41
2022-09-12T20:34:02.093Z,98259.72
2022-09-12T20:36:30.570Z,98256.19
2022-09-12T20:39:01.460Z,98257.03
2022-09-12T20:41:32.244Z,98257.03
2022-09-12T20:44:00.681Z,98261.59
2022-09-12T20:46:29.859Z,98257.03
2022-09-12T20:48:59.524Z,98257.03
2022-09-12T20:51:30.432Z,98262.41
2022-09-12T20:53:59.893Z,98260.75
2022-09-12T20:56:28.693Z,98259.72
2022-09-12T20:58:57.295Z,98265.09
2022-09-12T21:01:26.095Z,98255.38
2022-09-12T21:03:54.678Z,98255.38
2022-09-12T21:06:23.219Z,98254.34
2022-09-12T21:08:52.976Z,98258.72
2022-09-12T21:11:21.642Z,98256.69
2022-09-12T21:13:50.359Z,98248.44
2022-09-12T21:16:20.493Z,98251.94
2022-09-12T21:18:49.138Z,98246.78
2022-09-12T21:21:17.581Z,98247.97
2022-09-12T21:23:46.002Z,98246.28
2022-09-12T21:26:15.789Z,98238.41
2022-09-12T21:28:44.166Z,98251.66
2022-09-12T21:31:12.587Z,98242.75
2022-09-12T21:33:41.214Z,98248.13
2022-09-12T21:36:11.055Z,98252.69
2022-09-12T21:38:39.467Z,98254.53
2022-09-12T21:41:09.372Z,98256.41
2022-09-12T21:43:39.626Z,98256.41
2022-09-12T21:46:08.488Z,98254.72
2022-09-12T21:48:37.436Z,98248.34
2022-09-12T21:51:05.995Z,98250.16
2022-09-12T21:53:34.467Z,98251.19
2022-09-12T21:56:04.830Z,98243.13
2022-09-12T21:58:33.268Z,98245.81
2022-09-12T22:01:03.571Z,98243.13
2022-09-12T22:03:31.998Z,98240.44
2022-09-12T22:06:01.633Z,98242.28
2022-09-12T22:08:30.501Z,98243.28
2022-09-12T22:11:00.822Z,98237.91
2022-09-12T22:13:32.494Z,98233.41
2022-09-12T22:16:03.911Z,98235.22
2022-09-12T22:18:33.951Z,98229.03
2022-09-12T22:21:03.938Z,98226.31
2022-09-12T22:23:49.823Z,98225.50
2022-09-12T22:26:18.398Z,98220.13
2022-09-12T22:28:47.624Z,98225.50
2022-09-12T22:31:18.034Z,98219.28
2022-09-12T22:33:46.553Z,98222.81
2022-09-12T22:36:15.524Z,98226.31
2022-09-12T22:38:43.920Z,98218.47
2022-09-12T22:41:13.299Z,98224.66
2022-09-12T22:43:41.906Z,98219.28
2022-09-12T22:46:12.470Z,98223.84
2022-09-12T22:48:42.877Z,98221.16
2022-09-12T22:51:11.733Z,98222.16
2022-09-12T22:53:40.184Z,98227.53
2022-09-12T22:56:09.213Z,98226.69
2022-09-12T22:58:38.222Z,98224.00
2022-09-12T23:01:07.330Z,98225.88
2022-09-12T23:03:36.439Z,98223.19
2022-09-12T23:06:07.531Z,98220.50
2022-09-12T23:08:36.201Z,98213.47
2022-09-12T23:11:06.082Z,98214.28
2022-09-12T23:13:34.495Z,98203.53
2022-09-12T23:16:04.721Z,98212.59
2022-09-12T23:18:35.131Z,98203.53
2022-09-12T23:21:06.459Z,98208.06
2022-09-12T23:23:34.841Z,98209.06
2022-09-12T23:26:07.812Z,98208.91
2022-09-12T23:28:36.618Z,98208.25
2022-09-12T23:31:05.323Z,98212.59
2022-09-12T23:33:33.818Z,98214.28
2022-09-12T23:36:05.066Z,98209.06
2022-09-12T23:38:35.890Z,98209.06
2022-09-12T23:41:05.028Z,98205.56
2022-09-12T23:43:34.123Z,98208.25
2022-09-12T23:46:02.748Z,98202.88
2022-09-12T23:48:31.289Z,98199.34
2022-09-12T23:50:59.798Z,98207.41
2022-09-12T23:53:28.441Z,98197.66
2022-09-12T23:55:58.266Z,98197.66
2022-09-12T23:58:26.800Z,98196.66
